Terminal Aerodrome Forecast
Issued by NWS Denver/Boulder, CO

Home | Current Version | Previous Version | Text Only | Print | Product List | Glossary On
Versions: 1 2 3 4 5 6 7 8 9 10 11 12 13 14 15 16 17 18 19 20 21 22 23 24 25 26 27 28 29 30 31 32 33 34 35 36 37
000
FTUS45 KBOU 272034 AAB
TAFDEN
TAF AMD
KDEN 272034Z 2721/2824 24010KT P6SM VCTS SCT100CB BKN200
      TEMPO 2721/2722 VRB25G40KT
     FM272200 27010KT P6SM SCT100 BKN200
     FM280200 35013KT P6SM FEW200
     FM280700 VRB06KT P6SM FEW200
     FM281100 20008KT P6SM FEW200
     FM281600 11010KT P6SM FEW200=

USA.gov is the U.S. government's official web portal to all federal, state and local government web resources and services.